sensor_id;sensor_type;location;lat;lon;timestamp;P1;durP1;ratioP1;P2;durP2;ratioP2
15218;SDS011;15623;53.986;11.676;2023-03-11T00:00:07;7.57;;;6.67;;
15218;SDS011;15623;53.986;11.676;2023-03-11T00:02:38;7.67;;;6.37;;
15218;SDS011;15623;53.986;11.676;2023-03-11T00:05:10;8.27;;;6.23;;
15218;SDS011;15623;53.986;11.676;2023-03-11T00:07:46;9.60;;;6.97;;
15218;SDS011;15623;53.986;11.676;2023-03-11T00:10:17;8.87;;;6.43;;
15218;SDS011;15623;53.986;11.676;2023-03-11T00:15:47;10.70;;;6.47;;
15218;SDS011;15623;53.986;11.676;2023-03-11T00:18:19;8.73;;;6.73;;
15218;SDS011;15623;53.986;11.676;2023-03-11T00:20:49;16.57;;;7.23;;
15218;SDS011;15623;53.986;11.676;2023-03-11T00:23:18;9.27;;;6.87;;
15218;SDS011;15623;53.986;11.676;2023-03-11T00:25:53;8.57;;;6.57;;
15218;SDS011;15623;53.986;11.676;2023-03-11T00:28:29;9.33;;;6.20;;
15218;SDS011;15623;53.986;11.676;2023-03-11T00:33:43;8.20;;;6.37;;
15218;SDS011;15623;53.986;11.676;2023-03-11T00:36:20;6.83;;;5.73;;
15218;SDS011;15623;53.986;11.676;2023-03-11T00:39:05;8.80;;;6.70;;
15218;SDS011;15623;53.986;11.676;2023-03-11T00:41:35;7.70;;;6.47;;
15218;SDS011;15623;53.986;11.676;2023-03-11T00:46:39;8.83;;;6.53;;
15218;SDS011;15623;53.986;11.676;2023-03-11T00:49:08;8.37;;;6.53;;
15218;SDS011;15623;53.986;11.676;2023-03-11T00:51:36;7.63;;;6.80;;
15218;SDS011;15623;53.986;11.676;2023-03-11T00:54:04;9.00;;;6.80;;
15218;SDS011;15623;53.986;11.676;2023-03-11T00:56:36;14.10;;;7.00;;
15218;SDS011;15623;53.986;11.676;2023-03-11T00:59:05;9.27;;;6.63;;
15218;SDS011;15623;53.986;11.676;2023-03-11T01:01:35;7.63;;;6.90;;
15218;SDS011;15623;53.986;11.676;2023-03-11T01:04:11;8.63;;;6.67;;
15218;SDS011;15623;53.986;11.676;2023-03-11T01:09:34;8.67;;;5.73;;
15218;SDS011;15623;53.986;11.676;2023-03-11T01:12:05;8.70;;;5.83;;
15218;SDS011;15623;53.986;11.676;2023-03-11T01:14:35;8.50;;;5.97;;
15218;SDS011;15623;53.986;11.676;2023-03-11T01:17:11;5.77;;;5.17;;
15218;SDS011;15623;53.986;11.676;2023-03-11T01:19:52;6.30;;;5.17;;
15218;SDS011;15623;53.986;11.676;2023-03-11T01:22:23;6.40;;;4.87;;
15218;SDS011;15623;53.986;11.676;2023-03-11T01:25:07;6.60;;;5.30;;
15218;SDS011;15623;53.986;11.676;2023-03-11T01:27:37;6.00;;;4.97;;
15218;SDS011;15623;53.986;11.676;2023-03-11T01:30:05;7.20;;;5.43;;
15218;SDS011;15623;53.986;11.676;2023-03-11T01:32:52;7.60;;;5.67;;
15218;SDS011;15623;53.986;11.676;2023-03-11T01:35:21;6.67;;;5.17;;
15218;SDS011;15623;53.986;11.676;2023-03-11T01:37:59;10.47;;;4.87;;
15218;SDS011;15623;53.986;11.676;2023-03-11T01:40:38;7.40;;;5.03;;
15218;SDS011;15623;53.986;11.676;2023-03-11T01:48:41;5.20;;;4.70;;
15218;SDS011;15623;53.986;11.676;2023-03-11T01:51:13;6.43;;;4.60;;
15218;SDS011;15623;53.986;11.676;2023-03-11T01:53:40;6.30;;;4.53;;
15218;SDS011;15623;53.986;11.676;2023-03-11T01:56:08;7.20;;;4.27;;
15218;SDS011;15623;53.986;11.676;2023-03-11T01:58:41;6.63;;;5.03;;
15218;SDS011;15623;53.986;11.676;2023-03-11T02:01:11;4.43;;;4.00;;
15218;SDS011;15623;53.986;11.676;2023-03-11T02:03:39;5.50;;;5.00;;
15218;SDS011;15623;53.986;11.676;2023-03-11T02:06:22;8.77;;;5.47;;
15218;SDS011;15623;53.986;11.676;2023-03-11T02:11:26;6.53;;;4.60;;
15218;SDS011;15623;53.986;11.676;2023-03-11T02:13:57;4.50;;;4.10;;
15218;SDS011;15623;53.986;11.676;2023-03-11T02:16:27;4.97;;;4.20;;
15218;SDS011;15623;53.986;11.676;2023-03-11T02:18:57;4.60;;;4.20;;
15218;SDS011;15623;53.986;11.676;2023-03-11T02:21:29;6.70;;;4.40;;
15218;SDS011;15623;53.986;11.676;2023-03-11T02:24:01;4.90;;;3.87;;
15218;SDS011;15623;53.986;11.676;2023-03-11T02:26:33;5.10;;;4.43;;
15218;SDS011;15623;53.986;11.676;2023-03-11T02:29:05;5.50;;;4.40;;
15218;SDS011;15623;53.986;11.676;2023-03-11T02:31:34;4.53;;;4.13;;
15218;SDS011;15623;53.986;11.676;2023-03-11T02:34:02;6.83;;;4.43;;
15218;SDS011;15623;53.986;11.676;2023-03-11T02:36:37;4.57;;;4.17;;
15218;SDS011;15623;53.986;11.676;2023-03-11T02:39:14;6.67;;;4.77;;
15218;SDS011;15623;53.986;11.676;2023-03-11T02:41:54;5.13;;;4.50;;
15218;SDS011;15623;53.986;11.676;2023-03-11T02:44:24;8.27;;;4.20;;
15218;SDS011;15623;53.986;11.676;2023-03-11T02:46:52;7.03;;;4.17;;
15218;SDS011;15623;53.986;11.676;2023-03-11T02:49:27;5.87;;;4.40;;
15218;SDS011;15623;53.986;11.676;2023-03-11T02:52:03;4.47;;;4.07;;
15218;SDS011;15623;53.986;11.676;2023-03-11T02:54:36;5.77;;;4.40;;
15218;SDS011;15623;53.986;11.676;2023-03-11T02:57:03;5.23;;;3.87;;
15218;SDS011;15623;53.986;11.676;2023-03-11T02:59:39;4.10;;;3.70;;
15218;SDS011;15623;53.986;11.676;2023-03-11T03:02:23;6.17;;;4.07;;
15218;SDS011;15623;53.986;11.676;2023-03-11T03:04:58;7.70;;;3.50;;
15218;SDS011;15623;53.986;11.676;2023-03-11T03:07:26;5.67;;;4.03;;
15218;SDS011;15623;53.986;11.676;2023-03-11T03:09:54;9.23;;;4.00;;
15218;SDS011;15623;53.986;11.676;2023-03-11T03:12:29;4.00;;;3.70;;
15218;SDS011;15623;53.986;11.676;2023-03-11T03:15:10;4.53;;;3.10;;
15218;SDS011;15623;53.986;11.676;2023-03-11T03:17:41;3.93;;;3.33;;
15218;SDS011;15623;53.986;11.676;2023-03-11T03:20:15;4.53;;;2.93;;
15218;SDS011;15623;53.986;11.676;2023-03-11T03:25:18;3.10;;;2.80;;
15218;SDS011;15623;53.986;11.676;2023-03-11T03:27:52;3.40;;;2.80;;
15218;SDS011;15623;53.986;11.676;2023-03-11T03:30:27;2.60;;;2.40;;
15218;SDS011;15623;53.986;11.676;2023-03-11T03:32:55;4.83;;;2.87;;
15218;SDS011;15623;53.986;11.676;2023-03-11T03:35:25;2.73;;;2.53;;
15218;SDS011;15623;53.986;11.676;2023-03-11T03:37:55;3.63;;;2.60;;
15218;SDS011;15623;53.986;11.676;2023-03-11T03:40:37;3.20;;;2.50;;
15218;SDS011;15623;53.986;11.676;2023-03-11T03:43:18;4.20;;;3.20;;
15218;SDS011;15623;53.986;11.676;2023-03-11T03:48:36;6.17;;;3.37;;
15218;SDS011;15623;53.986;11.676;2023-03-11T03:51:10;4.57;;;3.87;;
15218;SDS011;15623;53.986;11.676;2023-03-11T03:53:37;4.73;;;4.30;;
15218;SDS011;15623;53.986;11.676;2023-03-11T03:56:07;5.47;;;4.43;;
15218;SDS011;15623;53.986;11.676;2023-03-11T03:58:43;5.80;;;5.13;;
15218;SDS011;15623;53.986;11.676;2023-03-11T04:01:10;7.73;;;5.43;;
15218;SDS011;15623;53.986;11.676;2023-03-11T04:03:40;10.17;;;6.10;;
15218;SDS011;15623;53.986;11.676;2023-03-11T04:06:15;5.47;;;4.97;;
15218;SDS011;15623;53.986;11.676;2023-03-11T04:08:50;5.33;;;4.83;;
15218;SDS011;15623;53.986;11.676;2023-03-11T04:11:28;5.87;;;5.33;;
15218;SDS011;15623;53.986;11.676;2023-03-11T04:14:09;5.77;;;5.27;;
15218;SDS011;15623;53.986;11.676;2023-03-11T04:16:50;6.73;;;5.77;;
15218;SDS011;15623;53.986;11.676;2023-03-11T04:19:28;5.93;;;5.20;;
15218;SDS011;15623;53.986;11.676;2023-03-11T04:21:58;10.53;;;5.80;;
15218;SDS011;15623;53.986;11.676;2023-03-11T04:24:30;5.90;;;5.33;;
15218;SDS011;15623;53.986;11.676;2023-03-11T04:29:50;6.20;;;5.60;;
15218;SDS011;15623;53.986;11.676;2023-03-11T04:37:40;4.67;;;4.27;;
15218;SDS011;15623;53.986;11.676;2023-03-11T04:40:09;4.67;;;4.17;;
15218;SDS011;15623;53.986;11.676;2023-03-11T04:45:16;5.10;;;4.70;;
15218;SDS011;15623;53.986;11.676;2023-03-11T04:47:46;4.27;;;3.87;;
15218;SDS011;15623;53.986;11.676;2023-03-11T04:50:25;3.50;;;3.20;;
15218;SDS011;15623;53.986;11.676;2023-03-11T04:52:53;3.43;;;3.13;;
15218;SDS011;15623;53.986;11.676;2023-03-11T04:57:53;3.77;;;2.80;;
15218;SDS011;15623;53.986;11.676;2023-03-11T05:00:28;3.17;;;2.77;;
15218;SDS011;15623;53.986;11.676;2023-03-11T05:02:58;3.00;;;2.80;;
15218;SDS011;15623;53.986;11.676;2023-03-11T05:05:32;3.63;;;2.77;;
15218;SDS011;15623;53.986;11.676;2023-03-11T05:10:32;4.80;;;3.77;;
15218;SDS011;15623;53.986;11.676;2023-03-11T05:13:02;5.27;;;3.67;;
15218;SDS011;15623;53.986;11.676;2023-03-11T05:15:32;3.43;;;3.13;;
15218;SDS011;15623;53.986;11.676;2023-03-11T05:18:00;3.33;;;3.03;;
15218;SDS011;15623;53.986;11.676;2023-03-11T05:20:37;3.70;;;3.40;;
15218;SDS011;15623;53.986;11.676;2023-03-11T05:23:06;2.80;;;2.60;;
15218;SDS011;15623;53.986;11.676;2023-03-11T05:25:39;3.20;;;2.90;;
15218;SDS011;15623;53.986;11.676;2023-03-11T05:28:08;3.87;;;2.47;;
15218;SDS011;15623;53.986;11.676;2023-03-11T05:33:22;3.27;;;3.07;;
15218;SDS011;15623;53.986;11.676;2023-03-11T05:35:52;3.47;;;3.17;;
15218;SDS011;15623;53.986;11.676;2023-03-11T05:38:21;3.60;;;3.30;;
15218;SDS011;15623;53.986;11.676;2023-03-11T05:41:04;4.30;;;3.90;;
15218;SDS011;15623;53.986;11.676;2023-03-11T05:43:40;4.80;;;4.30;;
15218;SDS011;15623;53.986;11.676;2023-03-11T05:46:14;5.50;;;5.00;;
15218;SDS011;15623;53.986;11.676;2023-03-11T05:48:43;7.43;;;5.67;;
15218;SDS011;15623;53.986;11.676;2023-03-11T05:51:12;6.80;;;6.20;;
15218;SDS011;15623;53.986;11.676;2023-03-11T05:53:41;7.33;;;6.63;;
15218;SDS011;15623;53.986;11.676;2023-03-11T05:56:16;7.67;;;6.93;;
15218;SDS011;15623;53.986;11.676;2023-03-11T05:58:45;8.07;;;7.27;;
15218;SDS011;15623;53.986;11.676;2023-03-11T06:01:14;8.60;;;7.77;;
15218;SDS011;15623;53.986;11.676;2023-03-11T06:03:50;7.40;;;6.10;;
15218;SDS011;15623;53.986;11.676;2023-03-11T06:06:23;5.80;;;5.30;;
15218;SDS011;15623;53.986;11.676;2023-03-11T06:11:34;4.87;;;4.47;;
15218;SDS011;15623;53.986;11.676;2023-03-11T06:14:15;4.67;;;4.20;;
15218;SDS011;15623;53.986;11.676;2023-03-11T06:16:43;5.00;;;4.60;;
15218;SDS011;15623;53.986;11.676;2023-03-11T06:19:12;5.60;;;4.97;;
15218;SDS011;15623;53.986;11.676;2023-03-11T06:21:40;8.50;;;5.30;;
15218;SDS011;15623;53.986;11.676;2023-03-11T06:24:08;6.17;;;5.37;;
15218;SDS011;15623;53.986;11.676;2023-03-11T06:26:41;5.90;;;5.30;;
15218;SDS011;15623;53.986;11.676;2023-03-11T06:29:10;6.90;;;6.00;;
15218;SDS011;15623;53.986;11.676;2023-03-11T06:31:48;7.43;;;6.73;;
15218;SDS011;15623;53.986;11.676;2023-03-11T06:34:31;8.23;;;7.50;;
15218;SDS011;15623;53.986;11.676;2023-03-11T06:37:14;9.50;;;8.60;;
15218;SDS011;15623;53.986;11.676;2023-03-11T06:39:44;10.53;;;9.37;;
15218;SDS011;15623;53.986;11.676;2023-03-11T06:42:15;10.17;;;9.17;;
15218;SDS011;15623;53.986;11.676;2023-03-11T06:44:48;10.27;;;9.27;;
15218;SDS011;15623;53.986;11.676;2023-03-11T06:47:16;11.80;;;9.40;;
15218;SDS011;15623;53.986;11.676;2023-03-11T06:49:44;10.50;;;9.50;;
15218;SDS011;15623;53.986;11.676;2023-03-11T06:52:13;10.80;;;9.03;;
15218;SDS011;15623;53.986;11.676;2023-03-11T06:54:48;10.67;;;9.33;;
15218;SDS011;15623;53.986;11.676;2023-03-11T06:57:21;9.53;;;8.63;;
15218;SDS011;15623;53.986;11.676;2023-03-11T06:59:54;8.90;;;8.10;;
15218;SDS011;15623;53.986;11.676;2023-03-11T07:02:22;9.33;;;8.43;;
15218;SDS011;15623;53.986;11.676;2023-03-11T07:04:56;8.67;;;7.87;;
15218;SDS011;15623;53.986;11.676;2023-03-11T07:12:39;8.37;;;7.57;;
15218;SDS011;15623;53.986;11.676;2023-03-11T07:15:07;8.10;;;7.40;;
15218;SDS011;15623;53.986;11.676;2023-03-11T07:17:36;7.80;;;7.10;;
15218;SDS011;15623;53.986;11.676;2023-03-11T07:20:11;7.93;;;7.23;;
15218;SDS011;15623;53.986;11.676;2023-03-11T07:22:40;8.10;;;6.20;;
15218;SDS011;15623;53.986;11.676;2023-03-11T07:25:10;6.67;;;6.03;;
15218;SDS011;15623;53.986;11.676;2023-03-11T07:27:40;6.47;;;5.93;;
15218;SDS011;15623;53.986;11.676;2023-03-11T07:30:23;6.03;;;5.57;;
15218;SDS011;15623;53.986;11.676;2023-03-11T07:32:50;6.27;;;5.67;;
15218;SDS011;15623;53.986;11.676;2023-03-11T07:35:19;6.07;;;5.57;;
15218;SDS011;15623;53.986;11.676;2023-03-11T07:37:50;6.50;;;5.90;;
15218;SDS011;15623;53.986;11.676;2023-03-11T07:40:17;7.57;;;6.53;;
15218;SDS011;15623;53.986;11.676;2023-03-11T07:42:46;8.07;;;7.30;;
15218;SDS011;15623;53.986;11.676;2023-03-11T07:45:14;7.70;;;7.00;;
15218;SDS011;15623;53.986;11.676;2023-03-11T07:47:43;7.70;;;7.00;;
15218;SDS011;15623;53.986;11.676;2023-03-11T07:50:12;7.57;;;6.97;;
15218;SDS011;15623;53.986;11.676;2023-03-11T07:52:46;8.60;;;7.70;;
15218;SDS011;15623;53.986;11.676;2023-03-11T07:55:16;8.50;;;7.50;;
15218;SDS011;15623;53.986;11.676;2023-03-11T07:57:57;8.10;;;7.27;;
15218;SDS011;15623;53.986;11.676;2023-03-11T08:00:24;8.37;;;7.57;;
15218;SDS011;15623;53.986;11.676;2023-03-11T08:03:00;11.87;;;7.70;;
15218;SDS011;15623;53.986;11.676;2023-03-11T08:05:34;8.17;;;7.37;;
15218;SDS011;15623;53.986;11.676;2023-03-11T08:08:02;8.47;;;7.57;;
15218;SDS011;15623;53.986;11.676;2023-03-11T08:10:29;8.00;;;7.30;;
15218;SDS011;15623;53.986;11.676;2023-03-11T08:12:59;8.33;;;7.47;;
15218;SDS011;15623;53.986;11.676;2023-03-11T08:15:27;7.27;;;6.60;;
15218;SDS011;15623;53.986;11.676;2023-03-11T08:17:55;6.73;;;6.13;;
15218;SDS011;15623;53.986;11.676;2023-03-11T08:20:24;7.73;;;6.07;;
15218;SDS011;15623;53.986;11.676;2023-03-11T08:22:55;6.40;;;5.50;;
15218;SDS011;15623;53.986;11.676;2023-03-11T08:25:23;7.40;;;6.00;;
15218;SDS011;15623;53.986;11.676;2023-03-11T08:27:51;5.60;;;5.00;;
15218;SDS011;15623;53.986;11.676;2023-03-11T08:30:30;7.30;;;5.20;;
15218;SDS011;15623;53.986;11.676;2023-03-11T08:33:00;6.93;;;6.17;;
15218;SDS011;15623;53.986;11.676;2023-03-11T08:35:30;6.20;;;5.60;;
15218;SDS011;15623;53.986;11.676;2023-03-11T08:38:08;5.20;;;4.70;;
15218;SDS011;15623;53.986;11.676;2023-03-11T08:40:37;5.63;;;4.47;;
15218;SDS011;15623;53.986;11.676;2023-03-11T08:43:14;6.00;;;5.40;;
15218;SDS011;15623;53.986;11.676;2023-03-11T08:48:15;3.13;;;2.93;;
15218;SDS011;15623;53.986;11.676;2023-03-11T08:50:43;3.60;;;3.30;;
15218;SDS011;15623;53.986;11.676;2023-03-11T08:53:11;5.33;;;4.83;;
15218;SDS011;15623;53.986;11.676;2023-03-11T08:55:41;32.95;;;18.20;;
15218;SDS011;15623;53.986;11.676;2023-03-11T08:58:09;9.48;;;8.18;;
15218;SDS011;15623;53.986;11.676;2023-03-11T09:00:44;73.27;;;39.77;;
15218;SDS011;15623;53.986;11.676;2023-03-11T09:03:11;10.90;;;10.10;;
15218;SDS011;15623;53.986;11.676;2023-03-11T09:05:54;4.27;;;3.87;;
15218;SDS011;15623;53.986;11.676;2023-03-11T09:08:23;5.27;;;3.90;;
15218;SDS011;15623;53.986;11.676;2023-03-11T09:10:51;4.60;;;4.20;;
15218;SDS011;15623;53.986;11.676;2023-03-11T09:13:26;13.60;;;12.33;;
15218;SDS011;15623;53.986;11.676;2023-03-11T09:15:53;5.83;;;5.43;;
15218;SDS011;15623;53.986;11.676;2023-03-11T09:21:16;5.33;;;4.40;;
15218;SDS011;15623;53.986;11.676;2023-03-11T09:23:46;4.37;;;3.97;;
15218;SDS011;15623;53.986;11.676;2023-03-11T09:26:15;4.87;;;4.27;;
15218;SDS011;15623;53.986;11.676;2023-03-11T09:28:42;3.80;;;3.50;;
15218;SDS011;15623;53.986;11.676;2023-03-11T09:31:20;3.77;;;3.53;;
15218;SDS011;15623;53.986;11.676;2023-03-11T09:33:49;3.30;;;3.00;;
15218;SDS011;15623;53.986;11.676;2023-03-11T09:36:25;3.00;;;2.80;;
15218;SDS011;15623;53.986;11.676;2023-03-11T09:38:59;3.22;;;3.03;;
15218;SDS011;15623;53.986;11.676;2023-03-11T09:41:29;3.55;;;3.08;;
15218;SDS011;15623;53.986;11.676;2023-03-11T09:44:11;2.95;;;2.75;;
15218;SDS011;15623;53.986;11.676;2023-03-11T09:49:41;3.53;;;3.25;;
15218;SDS011;15623;53.986;11.676;2023-03-11T09:52:19;3.63;;;3.33;;
15218;SDS011;15623;53.986;11.676;2023-03-11T09:54:56;4.60;;;4.10;;
15218;SDS011;15623;53.986;11.676;2023-03-11T09:57:28;6.13;;;4.80;;
15218;SDS011;15623;53.986;11.676;2023-03-11T09:59:58;3.92;;;3.63;;
15218;SDS011;15623;53.986;11.676;2023-03-11T10:02:45;3.83;;;3.50;;
15218;SDS011;15623;53.986;11.676;2023-03-11T10:08:01;3.70;;;3.40;;
15218;SDS011;15623;53.986;11.676;2023-03-11T10:10:42;3.97;;;3.67;;
15218;SDS011;15623;53.986;11.676;2023-03-11T10:13:14;4.40;;;3.83;;
15218;SDS011;15623;53.986;11.676;2023-03-11T10:15:45;4.13;;;3.73;;
15218;SDS011;15623;53.986;11.676;2023-03-11T10:21:11;4.47;;;4.07;;
15218;SDS011;15623;53.986;11.676;2023-03-11T10:23:47;4.03;;;3.63;;
15218;SDS011;15623;53.986;11.676;2023-03-11T10:26:17;3.97;;;3.57;;
15218;SDS011;15623;53.986;11.676;2023-03-11T10:28:53;3.40;;;3.10;;
15218;SDS011;15623;53.986;11.676;2023-03-11T10:31:23;3.50;;;3.20;;
15218;SDS011;15623;53.986;11.676;2023-03-11T10:34:05;3.80;;;3.33;;
15218;SDS011;15623;53.986;11.676;2023-03-11T10:36:50;3.33;;;3.00;;
15218;SDS011;15623;53.986;11.676;2023-03-11T10:39:36;3.20;;;2.90;;
15218;SDS011;15623;53.986;11.676;2023-03-11T10:42:09;3.37;;;2.80;;
15218;SDS011;15623;53.986;11.676;2023-03-11T10:44:41;2.97;;;2.77;;
15218;SDS011;15623;53.986;11.676;2023-03-11T10:47:14;4.87;;;3.07;;
15218;SDS011;15623;53.986;11.676;2023-03-11T10:49:51;2.93;;;2.70;;
15218;SDS011;15623;53.986;11.676;2023-03-11T10:52:20;2.50;;;2.40;;
15218;SDS011;15623;53.986;11.676;2023-03-11T10:54:59;2.80;;;2.60;;
15218;SDS011;15623;53.986;11.676;2023-03-11T10:57:32;2.75;;;2.55;;
15218;SDS011;15623;53.986;11.676;2023-03-11T11:02:54;2.65;;;2.45;;
15218;SDS011;15623;53.986;11.676;2023-03-11T11:05:30;2.85;;;2.65;;
15218;SDS011;15623;53.986;11.676;2023-03-11T11:08:12;2.30;;;2.20;;
15218;SDS011;15623;53.986;11.676;2023-03-11T11:10:53;2.60;;;2.03;;
15218;SDS011;15623;53.986;11.676;2023-03-11T11:13:23;2.13;;;1.95;;
15218;SDS011;15623;53.986;11.676;2023-03-11T11:15:58;2.00;;;1.80;;
15218;SDS011;15623;53.986;11.676;2023-03-11T11:18:29;1.80;;;1.70;;
15218;SDS011;15623;53.986;11.676;2023-03-11T11:21:07;2.00;;;1.80;;
15218;SDS011;15623;53.986;11.676;2023-03-11T11:23:40;1.33;;;1.23;;
15218;SDS011;15623;53.986;11.676;2023-03-11T11:26:21;2.17;;;1.42;;
15218;SDS011;15623;53.986;11.676;2023-03-11T11:31:44;1.30;;;1.20;;
15218;SDS011;15623;53.986;11.676;2023-03-11T11:34:28;1.40;;;1.30;;
15218;SDS011;15623;53.986;11.676;2023-03-11T11:36:58;1.40;;;1.30;;
15218;SDS011;15623;53.986;11.676;2023-03-11T11:39:26;2.72;;;1.20;;
15218;SDS011;15623;53.986;11.676;2023-03-11T11:42:07;1.52;;;1.40;;
15218;SDS011;15623;53.986;11.676;2023-03-11T11:47:14;1.30;;;1.20;;
15218;SDS011;15623;53.986;11.676;2023-03-11T11:49:47;2.38;;;1.20;;
15218;SDS011;15623;53.986;11.676;2023-03-11T11:52:23;1.05;;;1.05;;
15218;SDS011;15623;53.986;11.676;2023-03-11T11:54:55;1.48;;;1.15;;
15218;SDS011;15623;53.986;11.676;2023-03-11T11:57:29;1.20;;;1.10;;
15218;SDS011;15623;53.986;11.676;2023-03-11T11:59:56;1.67;;;0.90;;
15218;SDS011;15623;53.986;11.676;2023-03-11T12:02:38;1.10;;;1.00;;
15218;SDS011;15623;53.986;11.676;2023-03-11T12:05:28;1.73;;;1.17;;
15218;SDS011;15623;53.986;11.676;2023-03-11T12:08:08;1.30;;;1.20;;
15218;SDS011;15623;53.986;11.676;2023-03-11T12:13:44;1.50;;;1.13;;
15218;SDS011;15623;53.986;11.676;2023-03-11T12:16:22;1.23;;;1.10;;
15218;SDS011;15623;53.986;11.676;2023-03-11T12:18:58;0.80;;;0.80;;
15218;SDS011;15623;53.986;11.676;2023-03-11T12:24:23;1.10;;;0.82;;
15218;SDS011;15623;53.986;11.676;2023-03-11T12:29:34;1.65;;;1.52;;
15218;SDS011;15623;53.986;11.676;2023-03-11T12:32:15;1.30;;;0.98;;
15218;SDS011;15623;53.986;11.676;2023-03-11T12:34:47;1.75;;;1.05;;
15218;SDS011;15623;53.986;11.676;2023-03-11T12:37:14;1.30;;;1.00;;
15218;SDS011;15623;53.986;11.676;2023-03-11T12:39:46;1.17;;;1.05;;
15218;SDS011;15623;53.986;11.676;2023-03-11T12:42:23;1.40;;;1.30;;
15218;SDS011;15623;53.986;11.676;2023-03-11T12:50:39;2.00;;;1.90;;
15218;SDS011;15623;53.986;11.676;2023-03-11T12:55:38;1.90;;;1.80;;
15218;SDS011;15623;53.986;11.676;2023-03-11T13:03:47;2.00;;;1.90;;
15218;SDS011;15623;53.986;11.676;2023-03-11T13:06:25;2.40;;;1.80;;
15218;SDS011;15623;53.986;11.676;2023-03-11T13:11:32;3.15;;;1.80;;
15218;SDS011;15623;53.986;11.676;2023-03-11T13:16:46;3.17;;;2.10;;
15218;SDS011;15623;53.986;11.676;2023-03-11T13:22:36;2.38;;;2.10;;
15218;SDS011;15623;53.986;11.676;2023-03-11T13:25:02;2.38;;;2.08;;
15218;SDS011;15623;53.986;11.676;2023-03-11T13:27:53;1.92;;;1.80;;
15218;SDS011;15623;53.986;11.676;2023-03-11T13:30:25;3.00;;;2.22;;
15218;SDS011;15623;53.986;11.676;2023-03-11T13:41:21;2.13;;;1.90;;
15218;SDS011;15623;53.986;11.676;2023-03-11T13:46:24;2.20;;;1.87;;
15218;SDS011;15623;53.986;11.676;2023-03-11T13:48:59;2.33;;;1.93;;
15218;SDS011;15623;53.986;11.676;2023-03-11T13:51:31;2.37;;;2.00;;
15218;SDS011;15623;53.986;11.676;2023-03-11T13:54:01;2.10;;;1.90;;
15218;SDS011;15623;53.986;11.676;2023-03-11T13:56:38;3.17;;;2.10;;
15218;SDS011;15623;53.986;11.676;2023-03-11T13:59:14;2.33;;;2.13;;
15218;SDS011;15623;53.986;11.676;2023-03-11T14:01:49;2.43;;;2.07;;
15218;SDS011;15623;53.986;11.676;2023-03-11T14:04:18;2.47;;;1.87;;
15218;SDS011;15623;53.986;11.676;2023-03-11T14:09:24;3.40;;;1.97;;
15218;SDS011;15623;53.986;11.676;2023-03-11T14:12:02;2.97;;;2.03;;
15218;SDS011;15623;53.986;11.676;2023-03-11T14:14:40;2.87;;;2.10;;
15218;SDS011;15623;53.986;11.676;2023-03-11T14:17:11;4.23;;;2.20;;
15218;SDS011;15623;53.986;11.676;2023-03-11T14:19:39;3.53;;;2.03;;
15218;SDS011;15623;53.986;11.676;2023-03-11T14:24:39;2.60;;;2.10;;
15218;SDS011;15623;53.986;11.676;2023-03-11T14:27:26;2.00;;;1.80;;
15218;SDS011;15623;53.986;11.676;2023-03-11T14:29:55;2.93;;;2.00;;
15218;SDS011;15623;53.986;11.676;2023-03-11T14:32:25;3.47;;;1.93;;
15218;SDS011;15623;53.986;11.676;2023-03-11T14:34:54;4.37;;;1.90;;
15218;SDS011;15623;53.986;11.676;2023-03-11T14:37:30;3.47;;;1.83;;
15218;SDS011;15623;53.986;11.676;2023-03-11T14:39:59;3.93;;;2.07;;
15218;SDS011;15623;53.986;11.676;2023-03-11T14:42:42;2.87;;;1.73;;
15218;SDS011;15623;53.986;11.676;2023-03-11T14:45:17;4.53;;;1.97;;
15218;SDS011;15623;53.986;11.676;2023-03-11T14:47:46;2.87;;;1.80;;
15218;SDS011;15623;53.986;11.676;2023-03-11T14:50:16;2.23;;;2.00;;
15218;SDS011;15623;53.986;11.676;2023-03-11T14:52:45;4.30;;;2.00;;
15218;SDS011;15623;53.986;11.676;2023-03-11T14:55:14;4.00;;;1.83;;
15218;SDS011;15623;53.986;11.676;2023-03-11T14:57:48;2.23;;;1.93;;
15218;SDS011;15623;53.986;11.676;2023-03-11T15:00:29;4.97;;;2.23;;
15218;SDS011;15623;53.986;11.676;2023-03-11T15:03:01;2.37;;;2.00;;
15218;SDS011;15623;53.986;11.676;2023-03-11T15:05:45;3.33;;;2.30;;
15218;SDS011;15623;53.986;11.676;2023-03-11T15:08:16;3.27;;;2.30;;
15218;SDS011;15623;53.986;11.676;2023-03-11T15:11:02;3.20;;;1.77;;
15218;SDS011;15623;53.986;11.676;2023-03-11T15:13:32;3.10;;;1.77;;
15218;SDS011;15623;53.986;11.676;2023-03-11T15:16:20;1.87;;;1.30;;
15218;SDS011;15623;53.986;11.676;2023-03-11T15:18:49;1.77;;;1.43;;
15218;SDS011;15623;53.986;11.676;2023-03-11T15:21:33;3.63;;;1.60;;
15218;SDS011;15623;53.986;11.676;2023-03-11T15:24:04;2.03;;;1.30;;
15218;SDS011;15623;53.986;11.676;2023-03-11T15:26:34;1.93;;;1.70;;
15218;SDS011;15623;53.986;11.676;2023-03-11T15:31:50;1.57;;;1.40;;
15218;SDS011;15623;53.986;11.676;2023-03-11T15:34:30;1.30;;;1.20;;
15218;SDS011;15623;53.986;11.676;2023-03-11T15:37:00;1.53;;;0.90;;
15218;SDS011;15623;53.986;11.676;2023-03-11T15:39:40;1.17;;;0.90;;
15218;SDS011;15623;53.986;11.676;2023-03-11T15:48:02;1.37;;;0.90;;
15218;SDS011;15623;53.986;11.676;2023-03-11T15:50:35;1.57;;;0.80;;
15218;SDS011;15623;53.986;11.676;2023-03-11T15:53:02;3.53;;;0.83;;
15218;SDS011;15623;53.986;11.676;2023-03-11T15:55:31;1.83;;;0.60;;
15218;SDS011;15623;53.986;11.676;2023-03-11T15:58:01;1.60;;;0.93;;
15218;SDS011;15623;53.986;11.676;2023-03-11T16:00:36;4.93;;;1.80;;
15218;SDS011;15623;53.986;11.676;2023-03-11T16:03:11;3.70;;;0.97;;
15218;SDS011;15623;53.986;11.676;2023-03-11T16:05:39;3.83;;;1.37;;
15218;SDS011;15623;53.986;11.676;2023-03-11T16:08:08;6.17;;;1.60;;
15218;SDS011;15623;53.986;11.676;2023-03-11T16:10:41;3.27;;;1.60;;
15218;SDS011;15623;53.986;11.676;2023-03-11T16:13:12;5.47;;;2.50;;
15218;SDS011;15623;53.986;11.676;2023-03-11T16:15:41;3.83;;;1.50;;
15218;SDS011;15623;53.986;11.676;2023-03-11T16:18:16;7.63;;;1.80;;
15218;SDS011;15623;53.986;11.676;2023-03-11T16:20:45;3.50;;;1.23;;
15218;SDS011;15623;53.986;11.676;2023-03-11T16:23:15;2.03;;;1.40;;
15218;SDS011;15623;53.986;11.676;2023-03-11T16:25:46;1.37;;;1.10;;
15218;SDS011;15623;53.986;11.676;2023-03-11T16:28:16;1.30;;;1.20;;
15218;SDS011;15623;53.986;11.676;2023-03-11T16:30:43;1.90;;;1.20;;
15218;SDS011;15623;53.986;11.676;2023-03-11T16:33:15;3.13;;;1.27;;
15218;SDS011;15623;53.986;11.676;2023-03-11T16:35:48;1.73;;;1.20;;
15218;SDS011;15623;53.986;11.676;2023-03-11T16:43:29;2.40;;;1.30;;
15218;SDS011;15623;53.986;11.676;2023-03-11T16:45:57;2.33;;;1.13;;
15218;SDS011;15623;53.986;11.676;2023-03-11T16:48:36;2.90;;;1.10;;
15218;SDS011;15623;53.986;11.676;2023-03-11T16:51:05;1.80;;;1.20;;
15218;SDS011;15623;53.986;11.676;2023-03-11T16:53:32;5.00;;;1.43;;
15218;SDS011;15623;53.986;11.676;2023-03-11T16:56:06;3.97;;;1.30;;
15218;SDS011;15623;53.986;11.676;2023-03-11T16:58:33;3.70;;;1.23;;
15218;SDS011;15623;53.986;11.676;2023-03-11T17:01:06;4.77;;;1.47;;
15218;SDS011;15623;53.986;11.676;2023-03-11T17:03:44;3.13;;;1.07;;
15218;SDS011;15623;53.986;11.676;2023-03-11T17:06:12;3.50;;;1.50;;
15218;SDS011;15623;53.986;11.676;2023-03-11T17:08:41;2.33;;;1.00;;
15218;SDS011;15623;53.986;11.676;2023-03-11T17:11:19;4.17;;;1.13;;
15218;SDS011;15623;53.986;11.676;2023-03-11T17:28:45;2.47;;;1.00;;
15218;SDS011;15623;53.986;11.676;2023-03-11T17:33:46;2.27;;;1.17;;
15218;SDS011;15623;53.986;11.676;2023-03-11T17:36:21;3.30;;;1.70;;